sensor_id;sensor_type;location;lat;lon;timestamp;P1;durP1;ratioP1;P2;durP2;ratioP2
47605;SDS011;55448;51.330;4.946;2022-07-23T00:00:16;12.85;;;9.35;;
47605;SDS011;55448;51.330;4.946;2022-07-23T00:02:42;16.48;;;9.20;;
47605;SDS011;55448;51.330;4.946;2022-07-23T00:05:08;16.50;;;9.38;;
47605;SDS011;55448;51.330;4.946;2022-07-23T00:07:34;14.27;;;9.35;;
47605;SDS011;55448;51.330;4.946;2022-07-23T00:10:00;14.90;;;9.35;;
47605;SDS011;55448;51.330;4.946;2022-07-23T00:12:26;14.02;;;9.48;;
47605;SDS011;55448;51.330;4.946;2022-07-23T00:14:51;16.58;;;10.48;;
47605;SDS011;55448;51.330;4.946;2022-07-23T00:17:17;13.93;;;9.85;;
47605;SDS011;55448;51.330;4.946;2022-07-23T00:19:43;17.25;;;9.65;;
47605;SDS011;55448;51.330;4.946;2022-07-23T00:22:08;15.05;;;9.68;;
47605;SDS011;55448;51.330;4.946;2022-07-23T00:24:34;14.80;;;9.32;;
47605;SDS011;55448;51.330;4.946;2022-07-23T00:27:00;17.17;;;10.02;;
47605;SDS011;55448;51.330;4.946;2022-07-23T00:29:26;18.70;;;9.55;;
47605;SDS011;55448;51.330;4.946;2022-07-23T00:31:51;16.40;;;9.98;;
47605;SDS011;55448;51.330;4.946;2022-07-23T00:34:17;16.45;;;9.50;;
47605;SDS011;55448;51.330;4.946;2022-07-23T00:36:42;18.20;;;10.48;;
47605;SDS011;55448;51.330;4.946;2022-07-23T00:39:08;15.68;;;10.40;;
47605;SDS011;55448;51.330;4.946;2022-07-23T00:41:34;18.08;;;9.98;;
47605;SDS011;55448;51.330;4.946;2022-07-23T00:46:51;18.90;;;10.60;;
47605;SDS011;55448;51.330;4.946;2022-07-23T00:49:28;12.75;;;9.43;;
47605;SDS011;55448;51.330;4.946;2022-07-23T00:51:55;16.63;;;9.88;;
47605;SDS011;55448;51.330;4.946;2022-07-23T00:54:22;16.25;;;10.52;;
47605;SDS011;55448;51.330;4.946;2022-07-23T00:56:48;14.85;;;9.60;;
47605;SDS011;55448;51.330;4.946;2022-07-23T00:59:14;15.80;;;10.48;;
47605;SDS011;55448;51.330;4.946;2022-07-23T01:01:40;13.77;;;10.63;;
47605;SDS011;55448;51.330;4.946;2022-07-23T01:04:07;14.85;;;10.23;;
47605;SDS011;55448;51.330;4.946;2022-07-23T01:06:34;15.77;;;10.95;;
47605;SDS011;55448;51.330;4.946;2022-07-23T01:09:02;16.58;;;9.98;;
47605;SDS011;55448;51.330;4.946;2022-07-23T01:11:32;16.35;;;10.02;;
47605;SDS011;55448;51.330;4.946;2022-07-23T01:13:59;14.50;;;10.93;;
47605;SDS011;55448;51.330;4.946;2022-07-23T01:16:32;14.38;;;10.32;;
47605;SDS011;55448;51.330;4.946;2022-07-23T01:18:57;13.73;;;10.00;;
47605;SDS011;55448;51.330;4.946;2022-07-23T01:21:23;19.52;;;11.07;;
47605;SDS011;55448;51.330;4.946;2022-07-23T01:23:49;16.85;;;11.00;;
47605;SDS011;55448;51.330;4.946;2022-07-23T01:26:15;14.75;;;10.73;;
47605;SDS011;55448;51.330;4.946;2022-07-23T01:28:42;14.90;;;10.82;;
47605;SDS011;55448;51.330;4.946;2022-07-23T01:31:08;13.52;;;10.60;;
47605;SDS011;55448;51.330;4.946;2022-07-23T01:33:33;20.08;;;10.40;;
47605;SDS011;55448;51.330;4.946;2022-07-23T01:35:59;20.23;;;11.52;;
47605;SDS011;55448;51.330;4.946;2022-07-23T01:38:24;16.08;;;10.10;;
47605;SDS011;55448;51.330;4.946;2022-07-23T01:40:50;16.05;;;10.45;;
47605;SDS011;55448;51.330;4.946;2022-07-23T01:43:16;17.27;;;10.32;;
47605;SDS011;55448;51.330;4.946;2022-07-23T01:45:42;15.02;;;10.30;;
47605;SDS011;55448;51.330;4.946;2022-07-23T01:48:09;14.68;;;10.10;;
47605;SDS011;55448;51.330;4.946;2022-07-23T01:50:35;11.88;;;9.23;;
47605;SDS011;55448;51.330;4.946;2022-07-23T01:53:00;16.15;;;10.30;;
47605;SDS011;55448;51.330;4.946;2022-07-23T01:55:26;14.57;;;10.50;;
47605;SDS011;55448;51.330;4.946;2022-07-23T01:57:51;14.77;;;10.23;;
47605;SDS011;55448;51.330;4.946;2022-07-23T02:00:17;15.75;;;10.23;;
47605;SDS011;55448;51.330;4.946;2022-07-23T02:02:43;13.57;;;10.40;;
47605;SDS011;55448;51.330;4.946;2022-07-23T02:05:08;14.40;;;10.68;;
47605;SDS011;55448;51.330;4.946;2022-07-23T02:07:34;15.75;;;11.27;;
47605;SDS011;55448;51.330;4.946;2022-07-23T02:10:00;15.02;;;11.60;;
47605;SDS011;55448;51.330;4.946;2022-07-23T02:12:26;17.40;;;11.82;;
47605;SDS011;55448;51.330;4.946;2022-07-23T02:14:51;20.77;;;10.00;;
47605;SDS011;55448;51.330;4.946;2022-07-23T02:17:17;22.75;;;11.35;;
47605;SDS011;55448;51.330;4.946;2022-07-23T02:19:42;13.15;;;10.88;;
47605;SDS011;55448;51.330;4.946;2022-07-23T02:22:08;17.90;;;11.02;;
47605;SDS011;55448;51.330;4.946;2022-07-23T02:24:34;15.88;;;11.43;;
47605;SDS011;55448;51.330;4.946;2022-07-23T02:27:00;16.30;;;10.88;;
47605;SDS011;55448;51.330;4.946;2022-07-23T02:29:25;14.20;;;10.70;;
47605;SDS011;55448;51.330;4.946;2022-07-23T02:31:51;14.13;;;11.23;;
47605;SDS011;55448;51.330;4.946;2022-07-23T02:34:17;15.15;;;11.07;;
47605;SDS011;55448;51.330;4.946;2022-07-23T02:36:42;15.60;;;11.30;;
47605;SDS011;55448;51.330;4.946;2022-07-23T02:39:08;21.90;;;13.35;;
47605;SDS011;55448;51.330;4.946;2022-07-23T02:41:34;22.00;;;11.85;;
47605;SDS011;55448;51.330;4.946;2022-07-23T02:43:59;20.08;;;10.82;;
47605;SDS011;55448;51.330;4.946;2022-07-23T02:46:25;18.85;;;10.98;;
47605;SDS011;55448;51.330;4.946;2022-07-23T02:48:51;20.38;;;11.02;;
47605;SDS011;55448;51.330;4.946;2022-07-23T02:51:16;16.33;;;10.85;;
47605;SDS011;55448;51.330;4.946;2022-07-23T02:53:42;24.52;;;10.38;;
47605;SDS011;55448;51.330;4.946;2022-07-23T02:56:08;16.33;;;10.55;;
47605;SDS011;55448;51.330;4.946;2022-07-23T02:58:34;14.43;;;11.25;;
47605;SDS011;55448;51.330;4.946;2022-07-23T03:01:00;20.52;;;12.13;;
47605;SDS011;55448;51.330;4.946;2022-07-23T03:03:26;13.18;;;11.32;;
47605;SDS011;55448;51.330;4.946;2022-07-23T03:05:51;12.20;;;10.77;;
47605;SDS011;55448;51.330;4.946;2022-07-23T03:08:17;16.85;;;10.77;;
47605;SDS011;55448;51.330;4.946;2022-07-23T03:10:43;16.45;;;10.57;;
47605;SDS011;55448;51.330;4.946;2022-07-23T03:13:08;19.85;;;11.38;;
47605;SDS011;55448;51.330;4.946;2022-07-23T03:15:34;16.63;;;10.85;;
47605;SDS011;55448;51.330;4.946;2022-07-23T03:18:00;13.90;;;10.60;;
47605;SDS011;55448;51.330;4.946;2022-07-23T03:20:25;20.70;;;10.52;;
47605;SDS011;55448;51.330;4.946;2022-07-23T03:22:51;15.50;;;11.00;;
47605;SDS011;55448;51.330;4.946;2022-07-23T03:25:17;15.48;;;11.07;;
47605;SDS011;55448;51.330;4.946;2022-07-23T03:27:42;18.27;;;12.10;;
47605;SDS011;55448;51.330;4.946;2022-07-23T03:30:10;14.15;;;11.18;;
47605;SDS011;55448;51.330;4.946;2022-07-23T03:32:36;15.27;;;11.25;;
47605;SDS011;55448;51.330;4.946;2022-07-23T03:35:02;13.80;;;11.52;;
47605;SDS011;55448;51.330;4.946;2022-07-23T03:37:28;14.68;;;10.70;;
47605;SDS011;55448;51.330;4.946;2022-07-23T03:39:54;18.42;;;11.18;;
47605;SDS011;55448;51.330;4.946;2022-07-23T03:42:20;19.75;;;11.05;;
47605;SDS011;55448;51.330;4.946;2022-07-23T03:44:45;20.90;;;12.50;;
47605;SDS011;55448;51.330;4.946;2022-07-23T03:47:11;17.83;;;10.88;;
47605;SDS011;55448;51.330;4.946;2022-07-23T03:49:37;11.50;;;9.77;;
47605;SDS011;55448;51.330;4.946;2022-07-23T03:52:03;23.00;;;11.20;;
47605;SDS011;55448;51.330;4.946;2022-07-23T03:54:29;16.75;;;11.10;;
47605;SDS011;55448;51.330;4.946;2022-07-23T03:56:54;14.40;;;11.65;;
47605;SDS011;55448;51.330;4.946;2022-07-23T03:59:20;17.02;;;9.80;;
47605;SDS011;55448;51.330;4.946;2022-07-23T04:01:46;21.17;;;10.43;;
47605;SDS011;55448;51.330;4.946;2022-07-23T04:04:11;35.17;;;12.63;;
47605;SDS011;55448;51.330;4.946;2022-07-23T04:06:37;17.67;;;11.57;;
47605;SDS011;55448;51.330;4.946;2022-07-23T04:09:03;19.08;;;12.93;;
47605;SDS011;55448;51.330;4.946;2022-07-23T04:11:29;15.38;;;10.88;;
47605;SDS011;55448;51.330;4.946;2022-07-23T04:13:55;15.02;;;10.93;;
47605;SDS011;55448;51.330;4.946;2022-07-23T04:16:21;13.07;;;10.85;;
47605;SDS011;55448;51.330;4.946;2022-07-23T04:18:46;17.77;;;11.32;;
47605;SDS011;55448;51.330;4.946;2022-07-23T04:21:12;22.70;;;11.98;;
47605;SDS011;55448;51.330;4.946;2022-07-23T04:23:38;16.75;;;11.52;;
47605;SDS011;55448;51.330;4.946;2022-07-23T04:26:03;20.67;;;12.10;;
47605;SDS011;55448;51.330;4.946;2022-07-23T04:28:29;14.18;;;11.57;;
47605;SDS011;55448;51.330;4.946;2022-07-23T04:30:58;16.33;;;10.98;;
47605;SDS011;55448;51.330;4.946;2022-07-23T04:33:23;15.88;;;11.10;;
47605;SDS011;55448;51.330;4.946;2022-07-23T04:35:49;17.35;;;11.82;;
47605;SDS011;55448;51.330;4.946;2022-07-23T04:38:15;19.13;;;12.18;;
47605;SDS011;55448;51.330;4.946;2022-07-23T04:40:40;16.02;;;11.68;;
47605;SDS011;55448;51.330;4.946;2022-07-23T04:43:06;24.50;;;11.73;;
47605;SDS011;55448;51.330;4.946;2022-07-23T04:45:32;16.70;;;11.07;;
47605;SDS011;55448;51.330;4.946;2022-07-23T04:47:58;17.60;;;11.18;;
47605;SDS011;55448;51.330;4.946;2022-07-23T04:50:23;21.98;;;12.10;;
47605;SDS011;55448;51.330;4.946;2022-07-23T04:52:49;15.63;;;10.70;;
47605;SDS011;55448;51.330;4.946;2022-07-23T04:55:15;12.65;;;10.73;;
47605;SDS011;55448;51.330;4.946;2022-07-23T04:57:41;20.98;;;10.95;;
47605;SDS011;55448;51.330;4.946;2022-07-23T05:00:07;16.70;;;10.27;;
47605;SDS011;55448;51.330;4.946;2022-07-23T05:02:33;27.88;;;10.82;;
47605;SDS011;55448;51.330;4.946;2022-07-23T05:04:59;15.57;;;10.73;;
47605;SDS011;55448;51.330;4.946;2022-07-23T05:07:24;15.68;;;11.07;;
47605;SDS011;55448;51.330;4.946;2022-07-23T05:09:50;14.63;;;10.80;;
47605;SDS011;55448;51.330;4.946;2022-07-23T05:12:16;17.35;;;10.75;;
47605;SDS011;55448;51.330;4.946;2022-07-23T05:14:41;14.45;;;10.85;;
47605;SDS011;55448;51.330;4.946;2022-07-23T05:17:07;16.50;;;11.75;;
47605;SDS011;55448;51.330;4.946;2022-07-23T05:19:33;16.02;;;11.07;;
47605;SDS011;55448;51.330;4.946;2022-07-23T05:21:59;20.17;;;11.27;;
47605;SDS011;55448;51.330;4.946;2022-07-23T05:24:25;16.38;;;11.52;;
47605;SDS011;55448;51.330;4.946;2022-07-23T05:26:51;18.73;;;11.38;;
47605;SDS011;55448;51.330;4.946;2022-07-23T05:29:17;12.65;;;11.07;;
47605;SDS011;55448;51.330;4.946;2022-07-23T05:31:42;22.27;;;11.55;;
47605;SDS011;55448;51.330;4.946;2022-07-23T05:34:08;17.45;;;10.80;;
47605;SDS011;55448;51.330;4.946;2022-07-23T05:36:34;19.83;;;11.40;;
47605;SDS011;55448;51.330;4.946;2022-07-23T05:39:00;12.60;;;10.75;;
47605;SDS011;55448;51.330;4.946;2022-07-23T05:41:26;15.55;;;10.18;;
47605;SDS011;55448;51.330;4.946;2022-07-23T05:43:51;13.82;;;10.95;;
47605;SDS011;55448;51.330;4.946;2022-07-23T05:46:17;13.75;;;9.80;;
47605;SDS011;55448;51.330;4.946;2022-07-23T05:48:43;18.65;;;9.30;;
47605;SDS011;55448;51.330;4.946;2022-07-23T05:51:10;19.13;;;10.15;;
47605;SDS011;55448;51.330;4.946;2022-07-23T05:53:36;13.85;;;10.13;;
47605;SDS011;55448;51.330;4.946;2022-07-23T05:56:03;14.68;;;9.82;;
47605;SDS011;55448;51.330;4.946;2022-07-23T05:58:29;16.90;;;9.95;;
47605;SDS011;55448;51.330;4.946;2022-07-23T06:00:55;12.23;;;9.07;;
47605;SDS011;55448;51.330;4.946;2022-07-23T06:03:20;13.27;;;10.32;;
47605;SDS011;55448;51.330;4.946;2022-07-23T06:05:46;15.93;;;9.30;;
47605;SDS011;55448;51.330;4.946;2022-07-23T06:08:12;16.48;;;10.10;;
47605;SDS011;55448;51.330;4.946;2022-07-23T06:10:38;14.40;;;9.85;;
47605;SDS011;55448;51.330;4.946;2022-07-23T06:13:03;11.93;;;10.43;;
47605;SDS011;55448;51.330;4.946;2022-07-23T06:15:29;11.52;;;9.65;;
47605;SDS011;55448;51.330;4.946;2022-07-23T06:17:55;16.25;;;9.48;;
47605;SDS011;55448;51.330;4.946;2022-07-23T06:20:21;12.23;;;9.60;;
47605;SDS011;55448;51.330;4.946;2022-07-23T06:22:46;12.80;;;9.15;;
47605;SDS011;55448;51.330;4.946;2022-07-23T06:25:12;11.30;;;8.15;;
47605;SDS011;55448;51.330;4.946;2022-07-23T06:27:38;14.05;;;9.20;;
47605;SDS011;55448;51.330;4.946;2022-07-23T06:30:04;10.32;;;8.52;;
47605;SDS011;55448;51.330;4.946;2022-07-23T06:32:31;13.35;;;9.43;;
47605;SDS011;55448;51.330;4.946;2022-07-23T06:34:56;14.50;;;9.48;;
47605;SDS011;55448;51.330;4.946;2022-07-23T06:37:22;10.82;;;8.55;;
47605;SDS011;55448;51.330;4.946;2022-07-23T06:39:48;13.13;;;8.73;;
47605;SDS011;55448;51.330;4.946;2022-07-23T06:42:13;15.30;;;9.65;;
47605;SDS011;55448;51.330;4.946;2022-07-23T06:44:39;11.10;;;9.07;;
47605;SDS011;55448;51.330;4.946;2022-07-23T06:47:05;11.40;;;8.93;;
47605;SDS011;55448;51.330;4.946;2022-07-23T06:49:31;11.65;;;8.70;;
47605;SDS011;55448;51.330;4.946;2022-07-23T06:51:57;15.20;;;9.95;;
47605;SDS011;55448;51.330;4.946;2022-07-23T06:54:22;11.70;;;8.55;;
47605;SDS011;55448;51.330;4.946;2022-07-23T06:56:48;13.55;;;9.15;;
47605;SDS011;55448;51.330;4.946;2022-07-23T06:59:14;12.23;;;9.38;;
47605;SDS011;55448;51.330;4.946;2022-07-23T07:01:41;12.70;;;9.52;;
47605;SDS011;55448;51.330;4.946;2022-07-23T07:04:06;16.88;;;9.05;;
47605;SDS011;55448;51.330;4.946;2022-07-23T07:06:32;10.00;;;8.50;;
47605;SDS011;55448;51.330;4.946;2022-07-23T07:08:58;10.48;;;8.50;;
47605;SDS011;55448;51.330;4.946;2022-07-23T07:11:23;10.75;;;8.73;;
47605;SDS011;55448;51.330;4.946;2022-07-23T07:13:50;11.43;;;8.65;;
47605;SDS011;55448;51.330;4.946;2022-07-23T07:16:16;14.27;;;9.70;;
47605;SDS011;55448;51.330;4.946;2022-07-23T07:18:41;13.48;;;9.45;;
47605;SDS011;55448;51.330;4.946;2022-07-23T07:21:07;14.15;;;8.82;;
47605;SDS011;55448;51.330;4.946;2022-07-23T07:23:33;11.40;;;8.73;;
47605;SDS011;55448;51.330;4.946;2022-07-23T07:25:58;9.68;;;8.65;;
47605;SDS011;55448;51.330;4.946;2022-07-23T07:28:24;12.90;;;9.00;;
47605;SDS011;55448;51.330;4.946;2022-07-23T07:30:50;13.77;;;8.45;;
47605;SDS011;55448;51.330;4.946;2022-07-23T07:33:16;13.82;;;8.60;;
47605;SDS011;55448;51.330;4.946;2022-07-23T07:35:41;12.18;;;8.45;;
47605;SDS011;55448;51.330;4.946;2022-07-23T07:38:07;10.15;;;8.45;;
47605;SDS011;55448;51.330;4.946;2022-07-23T07:40:33;12.35;;;7.90;;
47605;SDS011;55448;51.330;4.946;2022-07-23T07:42:58;12.55;;;8.95;;
47605;SDS011;55448;51.330;4.946;2022-07-23T07:45:24;12.00;;;8.98;;
47605;SDS011;55448;51.330;4.946;2022-07-23T07:47:52;13.82;;;8.40;;
47605;SDS011;55448;51.330;4.946;2022-07-23T07:50:19;10.48;;;8.40;;
47605;SDS011;55448;51.330;4.946;2022-07-23T07:52:45;11.05;;;7.60;;
47605;SDS011;55448;51.330;4.946;2022-07-23T07:55:11;13.90;;;8.10;;
47605;SDS011;55448;51.330;4.946;2022-07-23T07:57:37;11.05;;;7.93;;
47605;SDS011;55448;51.330;4.946;2022-07-23T08:00:04;10.85;;;7.75;;
47605;SDS011;55448;51.330;4.946;2022-07-23T08:02:45;10.10;;;6.95;;
47605;SDS011;55448;51.330;4.946;2022-07-23T08:05:12;11.55;;;6.45;;
47605;SDS011;55448;51.330;4.946;2022-07-23T08:07:38;10.88;;;6.78;;
47605;SDS011;55448;51.330;4.946;2022-07-23T08:10:05;9.35;;;7.18;;
47605;SDS011;55448;51.330;4.946;2022-07-23T08:12:42;14.75;;;8.18;;
47605;SDS011;55448;51.330;4.946;2022-07-23T08:15:17;13.15;;;6.82;;
47605;SDS011;55448;51.330;4.946;2022-07-23T08:17:45;10.35;;;7.20;;
47605;SDS011;55448;51.330;4.946;2022-07-23T08:20:12;9.10;;;7.22;;
47605;SDS011;55448;51.330;4.946;2022-07-23T08:22:43;12.57;;;7.63;;
47605;SDS011;55448;51.330;4.946;2022-07-23T08:25:30;12.82;;;7.75;;
47605;SDS011;55448;51.330;4.946;2022-07-23T08:28:01;10.77;;;7.88;;
47605;SDS011;55448;51.330;4.946;2022-07-23T08:30:28;10.98;;;7.82;;
47605;SDS011;55448;51.330;4.946;2022-07-23T08:32:56;14.85;;;8.48;;
47605;SDS011;55448;51.330;4.946;2022-07-23T08:38:16;12.65;;;7.88;;
47605;SDS011;55448;51.330;4.946;2022-07-23T08:40:44;12.93;;;7.35;;
47605;SDS011;55448;51.330;4.946;2022-07-23T08:43:14;12.45;;;7.18;;
47605;SDS011;55448;51.330;4.946;2022-07-23T08:45:43;8.65;;;7.03;;
47605;SDS011;55448;51.330;4.946;2022-07-23T08:48:13;12.80;;;7.13;;
47605;SDS011;55448;51.330;4.946;2022-07-23T08:50:45;10.52;;;6.65;;
47605;SDS011;55448;51.330;4.946;2022-07-23T08:53:13;11.43;;;7.20;;
47605;SDS011;55448;51.330;4.946;2022-07-23T08:55:42;9.75;;;6.70;;
47605;SDS011;55448;51.330;4.946;2022-07-23T08:58:12;8.77;;;5.80;;
47605;SDS011;55448;51.330;4.946;2022-07-23T09:00:39;12.73;;;7.32;;
47605;SDS011;55448;51.330;4.946;2022-07-23T09:03:04;11.02;;;7.03;;
47605;SDS011;55448;51.330;4.946;2022-07-23T09:05:30;10.93;;;6.93;;
47605;SDS011;55448;51.330;4.946;2022-07-23T09:08:15;11.55;;;7.20;;
47605;SDS011;55448;51.330;4.946;2022-07-23T09:10:50;12.45;;;6.72;;
47605;SDS011;55448;51.330;4.946;2022-07-23T09:13:52;11.10;;;6.38;;
47605;SDS011;55448;51.330;4.946;2022-07-23T09:16:11;9.23;;;6.80;;
47605;SDS011;55448;51.330;4.946;2022-07-23T09:18:43;8.82;;;6.93;;
47605;SDS011;55448;51.330;4.946;2022-07-23T09:21:41;11.85;;;7.45;;
47605;SDS011;55448;51.330;4.946;2022-07-23T09:24:08;11.85;;;7.18;;
47605;SDS011;55448;51.330;4.946;2022-07-23T09:26:45;9.45;;;7.68;;
47605;SDS011;55448;51.330;4.946;2022-07-23T09:29:16;10.75;;;6.97;;
47605;SDS011;55448;51.330;4.946;2022-07-23T09:34:21;13.10;;;7.78;;
47605;SDS011;55448;51.330;4.946;2022-07-23T09:37:10;9.73;;;7.20;;
47605;SDS011;55448;51.330;4.946;2022-07-23T09:39:38;9.32;;;6.75;;
47605;SDS011;55448;51.330;4.946;2022-07-23T09:42:39;10.35;;;7.07;;
47605;SDS011;55448;51.330;4.946;2022-07-23T09:44:58;15.00;;;7.13;;
47605;SDS011;55448;51.330;4.946;2022-07-23T09:47:25;10.23;;;6.68;;
47605;SDS011;55448;51.330;4.946;2022-07-23T09:52:26;8.02;;;6.35;;
47605;SDS011;55448;51.330;4.946;2022-07-23T09:54:59;10.07;;;6.07;;
47605;SDS011;55448;51.330;4.946;2022-07-23T09:57:27;10.93;;;7.35;;
47605;SDS011;55448;51.330;4.946;2022-07-23T09:59:53;9.68;;;6.88;;
47605;SDS011;55448;51.330;4.946;2022-07-23T10:02:23;8.25;;;6.63;;
47605;SDS011;55448;51.330;4.946;2022-07-23T10:04:51;6.15;;;5.18;;
47605;SDS011;55448;51.330;4.946;2022-07-23T10:07:18;6.22;;;5.20;;
47605;SDS011;55448;51.330;4.946;2022-07-23T10:09:48;7.05;;;5.18;;
47605;SDS011;55448;51.330;4.946;2022-07-23T10:12:17;5.70;;;3.97;;
47605;SDS011;55448;51.330;4.946;2022-07-23T10:14:48;4.85;;;4.15;;
47605;SDS011;55448;51.330;4.946;2022-07-23T10:17:14;7.80;;;4.35;;
47605;SDS011;55448;51.330;4.946;2022-07-23T10:19:40;9.20;;;4.70;;
47605;SDS011;55448;51.330;4.946;2022-07-23T10:22:07;7.05;;;4.70;;
47605;SDS011;55448;51.330;4.946;2022-07-23T10:27:39;6.57;;;4.30;;
47605;SDS011;55448;51.330;4.946;2022-07-23T10:36:11;6.97;;;4.68;;
47605;SDS011;55448;51.330;4.946;2022-07-23T10:39:45;8.90;;;4.85;;
47605;SDS011;55448;51.330;4.946;2022-07-23T10:42:15;10.50;;;4.68;;
47605;SDS011;55448;51.330;4.946;2022-07-23T10:44:50;5.70;;;4.70;;
47605;SDS011;55448;51.330;4.946;2022-07-23T10:47:27;4.72;;;3.83;;
47605;SDS011;55448;51.330;4.946;2022-07-23T10:50:24;3.67;;;2.72;;
47605;SDS011;55448;51.330;4.946;2022-07-23T10:58:03;6.38;;;3.35;;
47605;SDS011;55448;51.330;4.946;2022-07-23T11:00:30;8.32;;;4.07;;
47605;SDS011;55448;51.330;4.946;2022-07-23T11:02:58;5.68;;;4.43;;
47605;SDS011;55448;51.330;4.946;2022-07-23T11:05:26;7.53;;;4.50;;
47605;SDS011;55448;51.330;4.946;2022-07-23T11:23:58;4.38;;;3.22;;
47605;SDS011;55448;51.330;4.946;2022-07-23T11:37:05;5.30;;;3.45;;
47605;SDS011;55448;51.330;4.946;2022-07-23T11:39:32;5.03;;;2.58;;
47605;SDS011;55448;51.330;4.946;2022-07-23T11:41:59;6.38;;;3.15;;
47605;SDS011;55448;51.330;4.946;2022-07-23T11:44:27;3.70;;;2.90;;
47605;SDS011;55448;51.330;4.946;2022-07-23T11:47:04;3.90;;;2.92;;
47605;SDS011;55448;51.330;4.946;2022-07-23T11:49:34;5.50;;;3.10;;
47605;SDS011;55448;51.330;4.946;2022-07-23T11:52:08;3.35;;;2.70;;
47605;SDS011;55448;51.330;4.946;2022-07-23T11:54:35;4.03;;;2.38;;
47605;SDS011;55448;51.330;4.946;2022-07-23T11:57:12;4.03;;;2.58;;
47605;SDS011;55448;51.330;4.946;2022-07-23T11:59:39;5.45;;;2.50;;
47605;SDS011;55448;51.330;4.946;2022-07-23T12:02:06;5.03;;;2.40;;
47605;SDS011;55448;51.330;4.946;2022-07-23T12:04:45;4.60;;;2.60;;
47605;SDS011;55448;51.330;4.946;2022-07-23T12:07:27;4.38;;;2.47;;
47605;SDS011;55448;51.330;4.946;2022-07-23T12:09:56;3.17;;;2.40;;
47605;SDS011;55448;51.330;4.946;2022-07-23T12:12:23;3.30;;;2.10;;
47605;SDS011;55448;51.330;4.946;2022-07-23T12:14:57;4.07;;;2.20;;
47605;SDS011;55448;51.330;4.946;2022-07-23T12:17:27;9.63;;;2.20;;
47605;SDS011;55448;51.330;4.946;2022-07-23T12:19:56;5.57;;;2.35;;
47605;SDS011;55448;51.330;4.946;2022-07-23T12:22:23;3.13;;;2.25;;
47605;SDS011;55448;51.330;4.946;2022-07-23T12:27:23;5.68;;;2.60;;
47605;SDS011;55448;51.330;4.946;2022-07-23T12:29:49;2.90;;;2.03;;
47605;SDS011;55448;51.330;4.946;2022-07-23T12:32:19;4.38;;;3.00;;
47605;SDS011;55448;51.330;4.946;2022-07-23T12:35:06;3.65;;;2.45;;
47605;SDS011;55448;51.330;4.946;2022-07-23T12:37:38;3.03;;;2.13;;
47605;SDS011;55448;51.330;4.946;2022-07-23T12:40:21;4.38;;;2.30;;
47605;SDS011;55448;51.330;4.946;2022-07-23T12:42:47;5.13;;;2.45;;
47605;SDS011;55448;51.330;4.946;2022-07-23T12:45:14;2.55;;;2.33;;
47605;SDS011;55448;51.330;4.946;2022-07-23T12:47:50;3.47;;;2.08;;
47605;SDS011;55448;51.330;4.946;2022-07-23T12:50:39;2.60;;;2.05;;
47605;SDS011;55448;51.330;4.946;2022-07-23T12:53:18;4.07;;;2.20;;
47605;SDS011;55448;51.330;4.946;2022-07-23T12:55:50;4.20;;;2.20;;
47605;SDS011;55448;51.330;4.946;2022-07-23T12:58:22;3.53;;;2.22;;
47605;SDS011;55448;51.330;4.946;2022-07-23T13:05:58;3.80;;;2.40;;
47605;SDS011;55448;51.330;4.946;2022-07-23T13:08:26;2.65;;;2.10;;
47605;SDS011;55448;51.330;4.946;2022-07-23T13:10:53;5.20;;;2.30;;
47605;SDS011;55448;51.330;4.946;2022-07-23T13:13:20;3.17;;;2.20;;
47605;SDS011;55448;51.330;4.946;2022-07-23T13:15:50;7.28;;;2.70;;
47605;SDS011;55448;51.330;4.946;2022-07-23T13:18:16;6.63;;;2.85;;
47605;SDS011;55448;51.330;4.946;2022-07-23T13:20:46;3.97;;;2.40;;
47605;SDS011;55448;51.330;4.946;2022-07-23T13:23:12;7.00;;;2.50;;
47605;SDS011;55448;51.330;4.946;2022-07-23T13:25:39;4.80;;;2.05;;
47605;SDS011;55448;51.330;4.946;2022-07-23T13:28:05;3.22;;;2.20;;
47605;SDS011;55448;51.330;4.946;2022-07-23T13:30:30;2.35;;;2.15;;
47605;SDS011;55448;51.330;4.946;2022-07-23T13:32:56;3.53;;;2.22;;
47605;SDS011;55448;51.330;4.946;2022-07-23T13:35:22;4.70;;;2.20;;
47605;SDS011;55448;51.330;4.946;2022-07-23T13:37:52;3.97;;;2.15;;
47605;SDS011;55448;51.330;4.946;2022-07-23T13:40:17;5.78;;;2.63;;
47605;SDS011;55448;51.330;4.946;2022-07-23T13:42:43;4.07;;;2.50;;
47605;SDS011;55448;51.330;4.946;2022-07-23T13:45:09;4.20;;;2.28;;
47605;SDS011;55448;51.330;4.946;2022-07-23T13:47:34;4.75;;;2.03;;
47605;SDS011;55448;51.330;4.946;2022-07-23T13:50:00;4.05;;;2.40;;
47605;SDS011;55448;51.330;4.946;2022-07-23T13:52:26;3.05;;;2.15;;
47605;SDS011;55448;51.330;4.946;2022-07-23T13:54:52;4.07;;;2.22;;
47605;SDS011;55448;51.330;4.946;2022-07-23T13:57:17;4.35;;;2.20;;
47605;SDS011;55448;51.330;4.946;2022-07-23T13:59:49;2.85;;;2.10;;
47605;SDS011;55448;51.330;4.946;2022-07-23T14:02:15;4.50;;;1.98;;
47605;SDS011;55448;51.330;4.946;2022-07-23T14:04:43;3.45;;;2.20;;
47605;SDS011;55448;51.330;4.946;2022-07-23T14:07:09;3.95;;;1.95;;
47605;SDS011;55448;51.330;4.946;2022-07-23T14:09:35;4.85;;;1.77;;
47605;SDS011;55448;51.330;4.946;2022-07-23T14:12:01;3.38;;;1.95;;
47605;SDS011;55448;51.330;4.946;2022-07-23T14:14:27;2.72;;;2.08;;
47605;SDS011;55448;51.330;4.946;2022-07-23T14:16:53;3.05;;;2.08;;
47605;SDS011;55448;51.330;4.946;2022-07-23T14:19:20;4.45;;;2.10;;
47605;SDS011;55448;51.330;4.946;2022-07-23T14:21:46;5.13;;;1.90;;
47605;SDS011;55448;51.330;4.946;2022-07-23T14:24:13;3.17;;;2.00;;
47605;SDS011;55448;51.330;4.946;2022-07-23T14:26:39;4.28;;;2.08;;
47605;SDS011;55448;51.330;4.946;2022-07-23T14:29:08;4.63;;;2.20;;
47605;SDS011;55448;51.330;4.946;2022-07-23T14:31:34;3.80;;;2.08;;
47605;SDS011;55448;51.330;4.946;2022-07-23T14:34:00;3.65;;;1.90;;
47605;SDS011;55448;51.330;4.946;2022-07-23T14:36:26;5.10;;;2.38;;
47605;SDS011;55448;51.330;4.946;2022-07-23T14:38:52;3.15;;;2.22;;
47605;SDS011;55448;51.330;4.946;2022-07-23T14:41:21;2.25;;;1.80;;
47605;SDS011;55448;51.330;4.946;2022-07-23T14:43:47;4.63;;;2.20;;
47605;SDS011;55448;51.330;4.946;2022-07-23T14:46:13;4.18;;;2.28;;
47605;SDS011;55448;51.330;4.946;2022-07-23T14:48:39;2.67;;;2.30;;
47605;SDS011;55448;51.330;4.946;2022-07-23T14:51:05;4.57;;;2.15;;
47605;SDS011;55448;51.330;4.946;2022-07-23T14:53:31;3.13;;;2.30;;
47605;SDS011;55448;51.330;4.946;2022-07-23T14:55:56;5.25;;;2.28;;
47605;SDS011;55448;51.330;4.946;2022-07-23T14:58:22;7.82;;;2.63;;
47605;SDS011;55448;51.330;4.946;2022-07-23T15:00:49;2.35;;;2.15;;
47605;SDS011;55448;51.330;4.946;2022-07-23T15:03:15;4.07;;;2.15;;
47605;SDS011;55448;51.330;4.946;2022-07-23T15:05:41;5.35;;;2.17;;
47605;SDS011;55448;51.330;4.946;2022-07-23T15:08:07;2.83;;;2.33;;
47605;SDS011;55448;51.330;4.946;2022-07-23T15:10:33;3.55;;;2.30;;
47605;SDS011;55448;51.330;4.946;2022-07-23T15:12:59;6.85;;;2.30;;
47605;SDS011;55448;51.330;4.946;2022-07-23T15:15:24;3.35;;;2.00;;
47605;SDS011;55448;51.330;4.946;2022-07-23T15:17:50;2.63;;;2.15;;
47605;SDS011;55448;51.330;4.946;2022-07-23T15:20:16;3.08;;;1.80;;
47605;SDS011;55448;51.330;4.946;2022-07-23T15:22:42;3.15;;;2.28;;
47605;SDS011;55448;51.330;4.946;2022-07-23T15:25:09;4.32;;;1.80;;
47605;SDS011;55448;51.330;4.946;2022-07-23T15:27:36;2.80;;;1.95;;
47605;SDS011;55448;51.330;4.946;2022-07-23T15:30:01;4.47;;;2.78;;
47605;SDS011;55448;51.330;4.946;2022-07-23T15:32:28;5.07;;;2.33;;
47605;SDS011;55448;51.330;4.946;2022-07-23T15:34:54;3.72;;;2.55;;
47605;SDS011;55448;51.330;4.946;2022-07-23T15:37:20;3.83;;;2.30;;